createdAt,value
2023-01-09T00:02:04.638Z,10.02
2023-01-09T00:04:42.733Z,10.40
2023-01-09T00:07:20.698Z,13.80
2023-01-09T00:09:58.610Z,15.25
2023-01-09T00:12:37.014Z,8.75
2023-01-09T00:15:15.027Z,12.85
2023-01-09T00:17:52.983Z,13.65
2023-01-09T00:20:31.100Z,11.73
2023-01-09T00:23:09.075Z,10.18
2023-01-09T00:25:47.277Z,9.65
2023-01-09T00:28:25.203Z,12.85
2023-01-09T00:31:05.023Z,11.35
2023-01-09T00:34:06.005Z,9.98
2023-01-09T00:36:44.008Z,9.50
2023-01-09T00:39:22.909Z,9.82
2023-01-09T00:42:00.912Z,8.32
2023-01-09T00:44:45.073Z,8.10
2023-01-09T00:47:46.768Z,8.63
2023-01-09T00:50:29.584Z,9.82
2023-01-09T00:53:14.589Z,8.40
2023-01-09T00:55:53.291Z,7.95
2023-01-09T00:58:33.847Z,9.57
2023-01-09T01:01:12.513Z,8.40
2023-01-09T01:03:50.686Z,8.15
2023-01-09T01:06:46.915Z,7.55
2023-01-09T01:09:24.938Z,10.55
2023-01-09T01:12:07.460Z,8.07
2023-01-09T01:14:45.648Z,8.13
2023-01-09T01:17:23.834Z,7.57
2023-01-09T01:20:01.827Z,8.00
2023-01-09T01:22:42.637Z,7.50
2023-01-09T01:25:20.678Z,7.63
2023-01-09T01:27:58.768Z,7.97
2023-01-09T01:30:40.939Z,10.07
2023-01-09T01:33:18.896Z,7.35
2023-01-09T01:36:09.024Z,8.02
2023-01-09T01:38:47.257Z,7.30
2023-01-09T01:41:30.948Z,6.57
2023-01-09T01:44:47.054Z,8.85
2023-01-09T01:48:02.875Z,6.82
2023-01-09T01:50:48.604Z,7.78
2023-01-09T01:53:28.735Z,7.25
2023-01-09T01:56:16.143Z,7.07
2023-01-09T01:59:05.271Z,6.93
2023-01-09T02:01:46.091Z,8.85
2023-01-09T02:04:24.387Z,9.00
2023-01-09T02:07:04.933Z,6.82
2023-01-09T02:09:44.946Z,9.13
2023-01-09T02:12:25.417Z,7.47
2023-01-09T02:15:08.260Z,7.75
2023-01-09T02:18:07.394Z,7.85
2023-01-09T02:20:53.619Z,10.35
2023-01-09T02:23:56.006Z,9.27
2023-01-09T02:26:48.582Z,7.53
2023-01-09T02:29:58.623Z,8.35
2023-01-09T02:32:55.372Z,8.38
2023-01-09T02:35:56.480Z,9.02
2023-01-09T02:38:51.371Z,8.05
2023-01-09T02:42:04.275Z,8.93
2023-01-09T02:44:43.528Z,6.97
2023-01-09T02:47:21.501Z,9.25
2023-01-09T02:50:04.456Z,6.70
2023-01-09T02:53:09.890Z,6.68
2023-01-09T02:55:59.950Z,6.82
2023-01-09T02:58:51.022Z,7.35
2023-01-09T03:02:00.833Z,7.45
2023-01-09T03:05:01.450Z,8.00
2023-01-09T03:07:48.719Z,7.65
2023-01-09T03:10:44.530Z,7.10
2023-01-09T03:13:26.871Z,7.60
2023-01-09T03:16:09.908Z,6.28
2023-01-09T03:18:50.768Z,8.93
2023-01-09T03:21:29.177Z,7.72
2023-01-09T03:24:07.250Z,5.97
2023-01-09T03:26:45.442Z,7.13
2023-01-09T03:29:23.319Z,8.00
2023-01-09T03:32:01.267Z,8.95
2023-01-09T03:34:39.349Z,10.85
2023-01-09T03:37:17.338Z,9.57
2023-01-09T03:39:55.345Z,8.23
2023-01-09T03:42:33.348Z,8.45
2023-01-09T03:45:11.683Z,8.38
2023-01-09T03:47:51.671Z,8.45
2023-01-09T03:50:30.882Z,8.25
2023-01-09T03:53:08.994Z,15.18
2023-01-09T03:55:49.697Z,8.07
2023-01-09T03:58:28.144Z,8.02
2023-01-09T04:01:09.775Z,8.63
2023-01-09T04:03:47.904Z,9.98
2023-01-09T04:06:26.040Z,12.10
2023-01-09T04:09:04.104Z,13.90
2023-01-09T04:11:42.093Z,9.00
2023-01-09T04:14:20.199Z,11.38
2023-01-09T04:16:58.177Z,8.40
2023-01-09T04:19:36.158Z,7.95
2023-01-09T04:22:14.156Z,6.20
2023-01-09T04:24:52.249Z,21.20
2023-01-09T04:27:30.593Z,5.93
2023-01-09T04:30:09.292Z,7.20
2023-01-09T04:32:47.342Z,6.25
2023-01-09T04:35:25.484Z,7.57
2023-01-09T04:38:03.633Z,6.30
2023-01-09T04:40:41.717Z,6.63
2023-01-09T04:43:19.751Z,6.15
2023-01-09T04:45:58.159Z,6.85
2023-01-09T04:48:36.152Z,7.47
2023-01-09T04:51:14.150Z,6.97
2023-01-09T04:53:52.110Z,6.55
2023-01-09T04:56:30.074Z,10.88
2023-01-09T04:59:09.196Z,6.55
2023-01-09T05:01:47.283Z,6.13
2023-01-09T05:04:26.247Z,6.07
2023-01-09T05:07:04.580Z,7.72
2023-01-09T05:09:43.773Z,7.15
2023-01-09T05:12:21.740Z,10.80
2023-01-09T05:14:59.910Z,7.32
2023-01-09T05:17:37.918Z,6.82
2023-01-09T05:20:16.079Z,8.07
2023-01-09T05:22:53.990Z,6.68
2023-01-09T05:25:32.181Z,7.82
2023-01-09T05:28:10.219Z,7.93
2023-01-09T05:30:48.509Z,9.00
2023-01-09T05:33:27.167Z,7.55
2023-01-09T05:36:05.529Z,6.70
2023-01-09T05:38:43.772Z,6.82
2023-01-09T05:41:23.600Z,6.15
2023-01-09T05:44:02.218Z,7.60
2023-01-09T05:46:40.109Z,6.85
2023-01-09T05:49:18.187Z,9.98
2023-01-09T05:51:56.442Z,7.78
2023-01-09T05:54:34.733Z,7.90
2023-01-09T05:57:12.963Z,8.80
2023-01-09T05:59:50.996Z,11.02
2023-01-09T06:02:29.046Z,9.27
2023-01-09T06:05:07.790Z,9.95
2023-01-09T06:07:45.891Z,10.90
2023-01-09T06:10:24.235Z,9.45
2023-01-09T06:13:02.569Z,8.73
2023-01-09T06:15:40.619Z,12.82
2023-01-09T06:18:18.668Z,10.00
2023-01-09T06:20:56.533Z,9.52
2023-01-09T06:23:34.530Z,8.75
2023-01-09T06:26:12.541Z,9.52
2023-01-09T06:28:50.454Z,11.73
2023-01-09T06:31:28.491Z,10.63
2023-01-09T06:34:06.524Z,8.23
2023-01-09T06:36:44.554Z,10.85
2023-01-09T06:39:22.475Z,11.23
2023-01-09T06:42:00.611Z,17.23
2023-01-09T06:44:38.597Z,15.05
2023-01-09T06:47:16.793Z,13.25
2023-01-09T06:49:54.893Z,6.53
2023-01-09T06:52:32.933Z,10.15
2023-01-09T06:55:10.891Z,10.00
2023-01-09T06:57:48.897Z,8.15
2023-01-09T07:00:27.453Z,10.27
2023-01-09T07:03:05.912Z,11.77
2023-01-09T07:05:43.937Z,10.80
2023-01-09T07:08:22.215Z,10.73
2023-01-09T07:11:00.381Z,12.00
2023-01-09T07:13:38.732Z,9.25
2023-01-09T07:16:16.854Z,9.07
2023-01-09T07:18:55.120Z,12.18
2023-01-09T07:21:33.085Z,6.82
2023-01-09T07:24:11.014Z,13.77
2023-01-09T07:26:48.985Z,12.00
2023-01-09T07:29:27.259Z,12.25
2023-01-09T07:32:05.697Z,11.45
2023-01-09T07:34:43.786Z,14.43
2023-01-09T07:37:21.881Z,11.27
2023-01-09T07:40:00.064Z,14.05
2023-01-09T07:42:38.121Z,14.30
2023-01-09T07:45:16.155Z,14.48
2023-01-09T07:47:54.241Z,12.15
2023-01-09T07:50:32.111Z,14.27
2023-01-09T07:53:10.157Z,9.38
2023-01-09T07:55:48.086Z,12.18
2023-01-09T07:58:26.070Z,11.02
2023-01-09T08:01:04.285Z,10.77
2023-01-09T08:03:42.308Z,9.05
2023-01-09T08:06:20.211Z,11.70
2023-01-09T08:08:58.877Z,12.13
2023-01-09T08:11:36.871Z,14.38
2023-01-09T08:14:14.983Z,11.48
2023-01-09T08:16:53.020Z,18.65
2023-01-09T08:19:31.026Z,12.32
2023-01-09T08:22:09.075Z,9.43
2023-01-09T08:24:47.165Z,11.38
2023-01-09T08:27:25.170Z,13.40
2023-01-09T08:30:03.522Z,10.50
2023-01-09T08:32:42.095Z,9.13
2023-01-09T08:35:20.851Z,14.80
2023-01-09T08:37:58.818Z,11.27
2023-01-09T08:40:36.742Z,16.10
2023-01-09T08:43:33.539Z,10.98
2023-01-09T08:46:39.952Z,14.52
2023-01-09T08:49:18.075Z,9.27
2023-01-09T08:51:55.965Z,10.40
2023-01-09T08:54:37.208Z,11.75
2023-01-09T08:57:15.297Z,12.57
2023-01-09T08:59:53.420Z,10.85
2023-01-09T09:02:31.542Z,14.68
2023-01-09T09:05:09.993Z,10.05
2023-01-09T09:07:54.148Z,13.55
2023-01-09T09:10:32.227Z,11.43
2023-01-09T09:13:10.429Z,10.30
2023-01-09T09:15:48.628Z,10.68
2023-01-09T09:18:26.650Z,16.30
2023-01-09T09:21:04.827Z,13.30
2023-01-09T09:23:44.621Z,12.80
2023-01-09T09:26:22.564Z,18.77
2023-01-09T09:29:00.583Z,14.85
2023-01-09T09:31:39.128Z,11.57
2023-01-09T09:34:17.679Z,12.27
2023-01-09T09:36:55.766Z,11.63
2023-01-09T09:39:33.879Z,15.60
2023-01-09T09:43:06.471Z,19.45
2023-01-09T09:46:05.762Z,12.15
2023-01-09T09:48:57.483Z,11.25
2023-01-09T09:51:47.746Z,15.25
2023-01-09T09:54:44.016Z,19.20
2023-01-09T09:57:29.790Z,15.15
2023-01-09T10:00:14.970Z,12.45
2023-01-09T10:02:58.916Z,12.25
2023-01-09T10:05:41.365Z,11.00
2023-01-09T10:08:41.503Z,11.85
2023-01-09T10:11:45.035Z,12.85
2023-01-09T10:14:24.075Z,15.25
2023-01-09T10:17:06.664Z,15.68
2023-01-09T10:19:47.953Z,14.60
2023-01-09T10:22:36.068Z,14.23
2023-01-09T10:25:31.857Z,12.35
2023-01-09T10:28:23.462Z,15.30
2023-01-09T10:31:13.990Z,13.38
2023-01-09T10:34:15.001Z,17.20
2023-01-09T10:37:00.314Z,19.30
2023-01-09T10:39:40.595Z,15.65
2023-01-09T10:42:23.520Z,16.92
2023-01-09T10:45:23.188Z,15.60
2023-01-09T10:48:05.323Z,15.68
2023-01-09T10:50:41.981Z,13.32
2023-01-09T10:53:41.054Z,14.10
2023-01-09T10:56:37.474Z,11.57
2023-01-09T10:59:10.989Z,12.50
2023-01-09T11:01:44.494Z,13.85
2023-01-09T11:04:29.499Z,14.77
2023-01-09T11:07:11.398Z,12.68
2023-01-09T11:10:09.987Z,14.43
2023-01-09T11:12:43.456Z,15.30
2023-01-09T11:15:16.692Z,18.80
2023-01-09T11:17:52.951Z,14.48
2023-01-09T11:20:28.757Z,15.48
2023-01-09T11:23:02.276Z,18.05
2023-01-09T11:25:35.326Z,34.17
2023-01-09T11:28:10.414Z,20.20
2023-01-09T11:31:02.815Z,32.05
2023-01-09T11:33:48.043Z,21.05
2023-01-09T11:36:27.387Z,22.75
2023-01-09T11:38:58.772Z,17.55
2023-01-09T11:41:36.536Z,17.65
2023-01-09T11:44:05.668Z,15.88
2023-01-09T11:46:44.126Z,16.02
2023-01-09T11:49:15.326Z,13.82
2023-01-09T11:51:43.908Z,18.27
2023-01-09T11:54:29.016Z,13.93
2023-01-09T11:56:57.414Z,13.70
2023-01-09T11:59:28.820Z,13.93
2023-01-09T12:02:17.427Z,19.83
2023-01-09T12:05:01.756Z,18.67
2023-01-09T12:07:58.792Z,18.35
2023-01-09T12:10:31.020Z,15.68
2023-01-09T12:13:11.387Z,15.93
2023-01-09T12:15:58.340Z,14.13
2023-01-09T12:19:01.908Z,14.38
2023-01-09T12:21:44.909Z,19.25
2023-01-09T12:24:30.728Z,17.00
2023-01-09T12:27:04.963Z,14.30
2023-01-09T12:29:53.274Z,17.92
2023-01-09T12:32:27.717Z,17.60
2023-01-09T12:35:11.133Z,19.35
2023-01-09T12:38:05.762Z,16.67
2023-01-09T12:40:42.908Z,16.63
2023-01-09T12:43:25.472Z,21.35
2023-01-09T12:46:14.022Z,18.25
2023-01-09T12:49:00.682Z,17.55
2023-01-09T12:51:37.718Z,15.88
2023-01-09T12:56:58.617Z,22.75
2023-01-09T12:59:48.507Z,19.45
2023-01-09T13:02:27.857Z,20.02
2023-01-09T13:05:10.866Z,16.38
2023-01-09T13:07:53.691Z,22.70
2023-01-09T13:10:31.160Z,22.95
2023-01-09T13:13:06.905Z,21.08
2023-01-09T13:15:46.119Z,30.90
2023-01-09T13:18:22.932Z,34.65
2023-01-09T13:20:56.863Z,28.63
2023-01-09T13:23:44.010Z,21.63
2023-01-09T13:26:20.118Z,23.42
2023-01-09T13:29:00.941Z,30.20
2023-01-09T13:32:15.401Z,27.02
2023-01-09T13:34:47.776Z,30.55
2023-01-09T13:37:31.027Z,34.40
2023-01-09T13:40:08.206Z,33.25
2023-01-09T13:45:32.808Z,35.70
2023-01-09T13:48:11.327Z,35.72
2023-01-09T13:50:39.930Z,27.75
2023-01-09T13:53:20.429Z,25.77
2023-01-09T13:56:07.612Z,27.08
2023-01-09T13:58:38.788Z,31.50
2023-01-09T14:01:25.885Z,33.45
2023-01-09T14:04:14.743Z,32.30
2023-01-09T14:06:45.233Z,23.98
2023-01-09T14:09:24.104Z,32.17
2023-01-09T14:12:04.828Z,38.33
2023-01-09T14:14:35.181Z,47.88
2023-01-09T14:17:17.085Z,37.10
2023-01-09T14:19:45.556Z,31.42
2023-01-09T14:22:29.681Z,29.55
2023-01-09T14:25:04.591Z,38.58
2023-01-09T14:28:08.472Z,25.60
2023-01-09T14:30:39.220Z,50.25
2023-01-09T14:33:19.896Z,53.58
2023-01-09T14:36:13.292Z,39.65
2023-01-09T14:38:41.256Z,34.75
2023-01-09T14:42:08.552Z,32.30
2023-01-09T14:44:59.116Z,26.25
2023-01-09T14:47:45.460Z,30.83
2023-01-09T14:50:32.580Z,32.38
2023-01-09T14:53:21.345Z,27.73
2023-01-09T14:55:55.484Z,29.35
2023-01-09T14:58:35.207Z,31.23
2023-01-09T15:01:08.724Z,31.05
2023-01-09T15:03:42.798Z,32.08
2023-01-09T15:06:23.326Z,27.90
2023-01-09T15:08:58.938Z,36.25
2023-01-09T15:11:28.101Z,30.23
2023-01-09T15:14:05.213Z,29.65
2023-01-09T15:19:09.341Z,27.27
2023-01-09T15:21:37.433Z,27.65
2023-01-09T15:24:28.898Z,36.40
2023-01-09T15:27:10.766Z,30.00
2023-01-09T15:29:38.921Z,31.23
2023-01-09T15:32:16.753Z,37.08
2023-01-09T15:34:49.888Z,40.97
2023-01-09T15:37:30.790Z,31.63
2023-01-09T15:40:01.706Z,29.45
2023-01-09T15:42:57.499Z,25.33
2023-01-09T15:45:37.527Z,23.30
2023-01-09T15:48:23.769Z,30.88
2023-01-09T15:51:10.677Z,23.70
2023-01-09T15:53:41.485Z,28.85
2023-01-09T15:56:20.560Z,25.35
2023-01-09T15:58:53.954Z,25.55
2023-01-09T16:01:41.945Z,26.65
2023-01-09T16:04:18.708Z,39.83
2023-01-09T16:06:52.344Z,44.38
2023-01-09T16:09:29.473Z,41.22
2023-01-09T16:12:03.446Z,41.20
2023-01-09T16:14:38.330Z,46.15
2023-01-09T16:17:09.236Z,52.58
2023-01-09T16:19:55.241Z,85.35
2023-01-09T16:22:29.108Z,91.47
2023-01-09T16:24:59.513Z,85.95
2023-01-09T16:27:33.711Z,62.33
2023-01-09T16:30:04.562Z,158.57
2023-01-09T16:32:37.011Z,295.77
2023-01-09T16:35:16.119Z,213.73
2023-01-09T16:37:44.037Z,121.75
2023-01-09T16:40:14.864Z,72.55
2023-01-09T16:43:00.962Z,49.40
2023-01-09T16:45:37.873Z,46.92
2023-01-09T16:48:18.883Z,38.03
2023-01-09T16:50:47.388Z,39.03
2023-01-09T16:53:28.716Z,44.15
2023-01-09T16:55:56.912Z,36.95
2023-01-09T16:58:30.732Z,36.70
2023-01-09T17:00:59.297Z,36.75
2023-01-09T17:03:27.853Z,35.72
2023-01-09T17:05:58.605Z,35.08
2023-01-09T17:08:29.664Z,56.10
2023-01-09T17:10:58.444Z,58.58
2023-01-09T17:13:27.023Z,65.63
2023-01-09T17:15:56.950Z,60.58
2023-01-09T17:18:26.839Z,57.00
2023-01-09T17:20:56.799Z,58.08
2023-01-09T17:23:27.492Z,33.13
2023-01-09T17:26:17.110Z,33.10
2023-01-09T17:28:51.966Z,33.05
2023-01-09T17:31:20.022Z,29.73
2023-01-09T17:33:47.924Z,49.35
2023-01-09T17:36:32.577Z,97.90
2023-01-09T17:39:01.478Z,151.18
2023-01-09T17:41:31.456Z,158.38
2023-01-09T17:44:00.197Z,142.10
2023-01-09T17:46:33.894Z,137.13
2023-01-09T17:49:02.719Z,141.80
2023-01-09T17:51:30.751Z,46.05
2023-01-09T17:53:59.257Z,44.20
2023-01-09T17:56:33.663Z,62.13
2023-01-09T17:59:01.648Z,46.13
2023-01-09T18:01:29.661Z,61.45
2023-01-09T18:03:57.850Z,68.72
2023-01-09T18:06:25.939Z,42.10
2023-01-09T18:08:54.300Z,37.60
2023-01-09T18:11:23.400Z,38.95
2023-01-09T18:13:54.157Z,44.20
2023-01-09T18:16:24.998Z,32.80
2023-01-09T18:18:58.084Z,22.95
2023-01-09T18:21:27.770Z,20.60
2023-01-09T18:23:56.859Z,21.75
2023-01-09T18:26:24.891Z,22.02
2023-01-09T18:28:56.500Z,32.92
2023-01-09T18:31:26.348Z,23.92
2023-01-09T18:33:56.795Z,25.58
2023-01-09T18:36:30.211Z,25.33
2023-01-09T18:39:00.209Z,26.40
2023-01-09T18:41:28.634Z,27.90
2023-01-09T18:43:59.021Z,30.88
2023-01-09T18:46:30.943Z,36.53
2023-01-09T18:49:01.340Z,32.97
2023-01-09T18:51:30.182Z,29.98
2023-01-09T18:53:58.986Z,28.90
2023-01-09T18:56:28.178Z,28.15
2023-01-09T18:58:58.170Z,27.27
2023-01-09T19:01:31.859Z,29.55
2023-01-09T19:04:00.829Z,33.08
2023-01-09T19:06:30.630Z,31.85
2023-01-09T19:08:59.752Z,24.60
2023-01-09T19:11:27.777Z,23.40
2023-01-09T19:13:55.914Z,26.77
2023-01-09T19:16:23.980Z,26.52
2023-01-09T19:18:52.065Z,27.73
2023-01-09T19:21:22.670Z,25.48
2023-01-09T19:23:50.627Z,23.13
2023-01-09T19:26:25.259Z,20.95
2023-01-09T19:28:58.227Z,25.52
2023-01-09T19:31:28.708Z,24.92
2023-01-09T19:33:57.964Z,24.15
2023-01-09T19:36:26.890Z,25.25
2023-01-09T19:39:02.479Z,23.83
2023-01-09T19:41:30.810Z,28.00
2023-01-09T19:44:02.140Z,30.35
2023-01-09T19:46:30.662Z,31.52
2023-01-09T19:48:59.222Z,36.40
2023-01-09T19:51:27.289Z,36.50
2023-01-09T19:56:35.798Z,34.13
2023-01-09T19:59:05.146Z,32.97
2023-01-09T20:01:39.059Z,31.65
2023-01-09T20:04:13.727Z,32.50
2023-01-09T20:06:46.912Z,27.95
2023-01-09T20:09:17.890Z,26.05
2023-01-09T20:11:45.872Z,29.73
2023-01-09T20:14:18.837Z,24.55
2023-01-09T20:16:50.267Z,24.70
2023-01-09T20:19:20.385Z,20.20
2023-01-09T20:21:49.474Z,20.35
2023-01-09T20:24:17.332Z,20.75
2023-01-09T20:26:46.544Z,22.83
2023-01-09T20:29:14.427Z,24.10
2023-01-09T20:31:42.432Z,32.25
2023-01-09T20:34:14.339Z,37.60
2023-01-09T20:36:42.458Z,33.17
2023-01-09T20:39:12.648Z,31.38
2023-01-09T20:41:40.962Z,26.05
2023-01-09T20:44:12.329Z,25.13
2023-01-09T20:46:48.288Z,23.33
2023-01-09T20:49:18.805Z,23.15
2023-01-09T20:51:52.144Z,24.80
2023-01-09T20:54:21.764Z,25.58
2023-01-09T20:56:49.815Z,28.02
2023-01-09T20:59:22.588Z,40.45
2023-01-09T21:01:51.171Z,40.50
2023-01-09T21:04:19.456Z,39.17
2023-01-09T21:06:49.748Z,38.50
2023-01-09T21:09:18.366Z,37.67
2023-01-09T21:11:46.325Z,35.42
2023-01-09T21:14:14.227Z,38.00
2023-01-09T21:16:45.479Z,34.13
2023-01-09T21:19:19.771Z,29.33
2023-01-09T21:21:47.748Z,21.33
2023-01-09T21:24:15.720Z,19.50
2023-01-09T21:26:43.589Z,21.10
2023-01-09T21:29:13.408Z,17.38
2023-01-09T21:31:41.583Z,16.13
2023-01-09T21:34:14.841Z,16.48
2023-01-09T21:36:45.244Z,18.40
2023-01-09T21:39:13.207Z,18.08
2023-01-09T21:41:59.300Z,19.90
2023-01-09T21:44:45.856Z,20.58
2023-01-09T21:47:14.047Z,20.10
2023-01-09T21:49:43.929Z,17.58
2023-01-09T21:52:13.277Z,17.23
2023-01-09T21:54:42.033Z,16.35
2023-01-09T21:57:10.608Z,17.52
2023-01-09T21:59:38.579Z,14.85
2023-01-09T22:02:06.841Z,17.33
2023-01-09T22:04:34.762Z,14.40
2023-01-09T22:07:02.599Z,17.50
2023-01-09T22:09:30.467Z,17.17
2023-01-09T22:11:58.412Z,19.80
2023-01-09T22:14:26.252Z,17.35
2023-01-09T22:16:54.050Z,15.00
2023-01-09T22:19:22.250Z,14.75
2023-01-09T22:21:50.363Z,14.95
2023-01-09T22:24:19.992Z,21.77
2023-01-09T22:26:48.377Z,20.33
2023-01-09T22:29:16.552Z,22.50
2023-01-09T22:31:44.591Z,19.13
2023-01-09T22:34:15.781Z,22.55
2023-01-09T22:36:45.053Z,22.88
2023-01-09T22:39:16.025Z,20.92
2023-01-09T22:41:44.111Z,21.98
2023-01-09T22:44:12.701Z,21.73
2023-01-09T22:46:40.604Z,25.30
2023-01-09T22:49:08.591Z,22.67
2023-01-09T22:51:36.700Z,19.83
2023-01-09T22:54:04.800Z,25.23
2023-01-09T22:56:32.652Z,23.20
2023-01-09T22:59:01.708Z,24.02
2023-01-09T23:01:33.031Z,27.52
2023-01-09T23:04:00.995Z,21.35
2023-01-09T23:06:29.031Z,17.95
2023-01-09T23:08:59.285Z,18.67
2023-01-09T23:11:51.101Z,16.02
2023-01-09T23:14:25.091Z,15.18
2023-01-09T23:16:53.036Z,17.38
2023-01-09T23:19:21.062Z,26.35
2023-01-09T23:21:48.912Z,21.77
2023-01-09T23:24:21.124Z,19.45
2023-01-09T23:26:50.000Z,18.63
2023-01-09T23:29:18.883Z,19.05
2023-01-09T23:31:47.116Z,16.23
2023-01-09T23:34:20.359Z,15.52
2023-01-09T23:36:50.293Z,14.77
2023-01-09T23:39:18.386Z,12.93
2023-01-09T23:42:05.049Z,11.10
2023-01-09T23:44:33.494Z,11.60
2023-01-09T23:47:01.382Z,12.75
2023-01-09T23:49:29.370Z,13.35
2023-01-09T23:51:57.615Z,14.00
2023-01-09T23:54:25.653Z,15.00
2023-01-09T23:56:56.544Z,13.95
2023-01-09T23:59:24.554Z,11.60
